Kilbirnie, United Kingdom
Current Conditions -  °F | °C
As of 10:50 AM on Sunday 26 Oct 2014 (Local Time) from EGPF Reporting Station
Light Rain Light Rain  
Wind Chill: 54°   Ceiling: 2000
Heat Index: 54°   Visibility: 5mi
Dew Point: 50°   Wind: 26mph
Humidity: 88%   Direction: 210°SSW
Pressure: 29.68"   Gusts: 38mph
Location:  55.75°N, 4.69°W
Report Text: EGPF 260950Z AUTO 21023G33KT 8000 -RA BKN020/// //////TCU 12/10 Q1005 RERA
Loading
Personal Weather Stations






























Interactive Weather Map
Tropical Storm Tracking
New forecast layout! Learn more

10-Day Weather Forecast

Advertisements
Track Severe Weather on mobile